Time;durP1;ratioP1;P1;durP2;ratioP2;P2;SDS_P1;SDS_P2;PMS_P1;PMS_P2;Temp;Humidity;BMP_temperature;BMP_pressure;BME280_temperature;BME280_humidity;BME280_pressure;Samples;Min_cycle;Max_cycle;Signal;HPM_P1;HPM_P2
2024/02/23 00:01:18;;;;;;;0.20;0.10;;;11.60;51.40;;;;;;5092914;28;20512;-73
2024/02/23 00:03:44;;;;;;;0.10;0.10;;;11.60;51.40;;;;;;5093236;28;20055;-73
2024/02/23 00:06:10;;;;;;;0.10;0.10;;;11.60;51.80;;;;;;5093295;28;20046;-70
2024/02/23 00:08:37;;;;;;;0.08;0.03;;;11.60;51.50;;;;;;5095304;28;20138;-73
2024/02/23 00:11:03;;;;;;;0.10;0.10;;;11.50;51.70;;;;;;5092531;28;20028;-70
2024/02/23 00:13:29;;;;;;;0.08;0.03;;;11.50;50.60;;;;;;5093317;28;20496;-72
2024/02/23 00:15:55;;;;;;;0.08;0.08;;;11.50;51.80;;;;;;5093165;28;20043;-70
2024/02/23 00:18:21;;;;;;;0.20;0.20;;;11.50;51.70;;;;;;5095395;28;20039;-73
2024/02/23 00:20:47;;;;;;;0.10;0.10;;;11.50;51.60;;;;;;5094192;28;20036;-73
2024/02/23 00:23:13;;;;;;;0.10;0.10;;;11.50;52.70;;;;;;5093694;28;20085;-70
2024/02/23 00:25:39;;;;;;;0.15;0.15;;;11.50;53.10;;;;;;5076380;28;20126;-70
2024/02/23 00:28:06;;;;;;;0.10;0.10;;;11.40;54.30;;;;;;5093490;28;20029;-73
2024/02/23 00:30:32;;;;;;;;;;;11.40;53.80;;;;;;5093281;28;20043;-70
2024/02/23 00:32:58;;;;;;;0.10;0.10;;;11.30;54.60;;;;;;5094506;28;20388;-71
2024/02/23 00:35:24;;;;;;;0.10;0.10;;;11.30;54.10;;;;;;5092950;28;20654;-71
2024/02/23 00:37:50;;;;;;;0.00;0.00;;;11.20;54.30;;;;;;5093022;28;20042;-72
2024/02/23 00:40:16;;;;;;;0.10;0.10;;;11.10;53.80;;;;;;5093447;28;20040;-73
2024/02/23 00:42:42;;;;;;;0.75;0.73;;;11.10;53.60;;;;;;5094402;28;20032;-73
2024/02/23 00:45:08;;;;;;;0.10;0.10;;;11.10;52.90;;;;;;5094199;28;20535;-70
2024/02/23 00:47:35;;;;;;;0.10;0.10;;;11.00;53.00;;;;;;5094113;28;20503;-70
2024/02/23 00:50:02;;;;;;;0.10;0.10;;;10.90;52.40;;;;;;5092571;28;20040;-70
2024/02/23 00:52:28;;;;;;;0.10;0.10;;;10.80;52.60;;;;;;5092416;28;20044;-70
2024/02/23 00:54:54;;;;;;;0.00;0.00;;;10.80;53.10;;;;;;5092682;28;20104;-70
2024/02/23 00:57:27;;;;;;;0.25;0.20;;;10.80;53.10;;;;;;5091748;28;20036;-69
2024/02/23 00:59:53;;;;;;;0.10;0.10;;;10.70;53.40;;;;;;5094123;28;20484;-73
2024/02/23 01:02:19;;;;;;;0.00;0.00;;;10.70;53.70;;;;;;5093945;28;20039;-73
2024/02/23 01:04:45;;;;;;;0.00;0.00;;;10.70;53.80;;;;;;5092974;28;20044;-70
2024/02/23 01:07:11;;;;;;;0.10;0.10;;;10.70;53.80;;;;;;5094038;28;20052;-70
2024/02/23 01:09:37;;;;;;;0.20;0.20;;;10.60;53.90;;;;;;5092686;28;20039;-72
2024/02/23 01:12:03;;;;;;;0.00;0.00;;;10.50;54.00;;;;;;5093225;28;20420;-73
2024/02/23 01:14:29;;;;;;;;;;;10.50;53.70;;;;;;5093047;28;20051;-72
2024/02/23 01:16:55;;;;;;;0.10;0.10;;;10.50;54.30;;;;;;5093686;28;20368;-72
2024/02/23 01:19:21;;;;;;;0.10;0.10;;;10.50;54.10;;;;;;5092440;28;20465;-73
2024/02/23 01:21:48;;;;;;;0.10;0.10;;;10.50;54.20;;;;;;5091736;28;20039;-70
2024/02/23 01:24:14;;;;;;;0.03;0.03;;;10.40;54.00;;;;;;5093412;28;20051;-70
2024/02/23 01:26:41;;;;;;;0.17;0.17;;;10.40;54.50;;;;;;5075107;28;20036;-70
2024/02/23 01:29:07;;;;;;;0.65;0.47;;;10.40;54.50;;;;;;5091881;28;20066;-70
2024/02/23 01:31:33;;;;;;;0.10;0.10;;;10.40;54.40;;;;;;5093035;28;20036;-70
2024/02/23 01:33:59;;;;;;;0.10;0.10;;;10.40;54.20;;;;;;5092168;28;20044;-70
2024/02/23 01:36:25;;;;;;;0.10;0.10;;;10.40;54.20;;;;;;5093426;28;20390;-70
2024/02/23 01:38:51;;;;;;;0.47;0.20;;;10.40;53.90;;;;;;5092110;28;20028;-72
2024/02/23 01:41:17;;;;;;;0.10;0.10;;;10.40;53.90;;;;;;5092655;28;20096;-70
2024/02/23 01:43:43;;;;;;;0.63;0.25;;;10.40;54.00;;;;;;5092186;28;20048;-73
2024/02/23 01:46:09;;;;;;;0.03;0.03;;;10.40;53.80;;;;;;5091917;28;20172;-73
2024/02/23 01:48:35;;;;;;;0.22;0.20;;;10.40;53.80;;;;;;5093588;28;20032;-73
2024/02/23 01:51:01;;;;;;;0.10;0.10;;;10.30;53.20;;;;;;5074347;28;20036;-72
2024/02/23 01:53:28;;;;;;;0.10;0.10;;;10.40;53.90;;;;;;5091942;28;20424;-70
2024/02/23 01:55:54;;;;;;;0.43;0.20;;;10.30;54.20;;;;;;5091658;28;20028;-72
2024/02/23 01:58:21;;;;;;;0.20;0.20;;;10.30;54.00;;;;;;5091847;28;20405;-70
2024/02/23 02:00:47;;;;;;;0.10;0.10;;;10.30;53.90;;;;;;5092529;28;20036;-70
2024/02/23 02:03:13;;;;;;;0.10;0.10;;;10.30;54.20;;;;;;5092820;28;20048;-72
2024/02/23 02:05:39;;;;;;;0.43;0.20;;;10.30;54.40;;;;;;5091484;28;20036;-70
2024/02/23 02:08:06;;;;;;;0.10;0.10;;;10.30;54.10;;;;;;5091749;28;20157;-70
2024/02/23 02:10:32;;;;;;;0.13;0.13;;;10.30;53.90;;;;;;5090698;28;20101;-69
2024/02/23 02:13:17;;;;;;;0.20;0.10;;;10.30;54.20;;;;;;5091414;28;20036;-73
2024/02/23 02:15:43;;;;;;;0.10;0.10;;;10.30;53.80;;;;;;5091541;28;20445;-70
2024/02/23 02:18:10;;;;;;;;;;;10.30;54.60;;;;;;5093125;28;20395;-70
2024/02/23 02:20:37;;;;;;;0.10;0.10;;;10.30;54.30;;;;;;5090874;28;19959;-73
2024/02/23 02:23:04;;;;;;;0.20;0.20;;;10.30;54.10;;;;;;5091189;28;20032;-72
2024/02/23 02:25:30;;;;;;;0.10;0.10;;;10.30;54.00;;;;;;5092337;28;20298;-73
2024/02/23 02:27:56;;;;;;;0.30;0.10;;;10.40;54.30;;;;;;5092191;28;20089;-69
2024/02/23 02:30:22;;;;;;;0.20;0.20;;;10.40;54.70;;;;;;5091567;28;20035;-70
2024/02/23 02:32:48;;;;;;;0.25;0.10;;;10.40;54.40;;;;;;5092334;28;20035;-70
2024/02/23 02:35:14;;;;;;;8.52;0.43;;;10.40;54.40;;;;;;5090970;28;20040;-73
2024/02/23 02:37:40;;;;;;;0.05;0.05;;;10.50;54.50;;;;;;5092467;28;20439;-73
2024/02/23 02:40:07;;;;;;;0.05;0.05;;;10.50;54.40;;;;;;5090388;28;20401;-70
2024/02/23 02:42:33;;;;;;;0.10;0.10;;;10.60;54.10;;;;;;5090852;28;20089;-73
2024/02/23 02:45:00;;;;;;;0.00;0.00;;;10.60;53.80;;;;;;5092233;28;20031;-73
2024/02/23 02:47:26;;;;;;;0.10;0.10;;;10.60;53.60;;;;;;5092090;28;20036;-70
2024/02/23 02:49:52;;;;;;;0.22;0.20;;;10.70;53.50;;;;;;5090806;28;20040;-73
2024/02/23 02:52:18;;;;;;;0.10;0.10;;;10.70;53.40;;;;;;5091068;28;20540;-71
2024/02/23 02:54:44;;;;;;;0.10;0.10;;;10.70;53.30;;;;;;5091927;28;20114;-70
2024/02/23 02:57:10;;;;;;;0.10;0.10;;;10.70;53.20;;;;;;5090444;28;20056;-73
2024/02/23 02:59:36;;;;;;;0.10;0.10;;;10.70;53.10;;;;;;5091769;28;20032;-70
2024/02/23 03:02:02;;;;;;;2.90;1.08;;;10.70;52.80;;;;;;5091294;28;20065;-70
2024/02/23 03:04:28;;;;;;;0.10;0.10;;;10.70;53.10;;;;;;5090551;28;20044;-71
2024/02/23 03:06:54;;;;;;;0.10;0.10;;;10.70;53.20;;;;;;5090364;28;20117;-70
2024/02/23 03:09:20;;;;;;;0.08;0.08;;;10.70;52.70;;;;;;5091353;28;20036;-72
2024/02/23 03:11:46;;;;;;;0.17;0.15;;;10.60;52.30;;;;;;5091200;28;20149;-70
2024/02/23 03:14:12;;;;;;;0.15;0.15;;;10.60;53.10;;;;;;5090604;28;20505;-70
2024/02/23 03:16:38;;;;;;;0.00;0.00;;;10.50;53.20;;;;;;5090909;28;20370;-73
2024/02/23 03:19:04;;;;;;;0.10;0.10;;;10.50;53.20;;;;;;5091378;28;20056;-69
2024/02/23 03:24:19;;;;;;;0.15;0.15;;;10.50;53.30;;;;;;5091605;28;20039;-70
2024/02/23 03:26:45;;;;;;;0.10;0.10;;;10.40;53.40;;;;;;5091218;28;20496;-70
2024/02/23 03:29:11;;;;;;;0.00;0.00;;;10.40;53.80;;;;;;5089801;28;20048;-73
2024/02/23 03:31:37;;;;;;;0.10;0.10;;;10.40;53.60;;;;;;5090999;28;20504;-70
2024/02/23 03:34:03;;;;;;;0.10;0.10;;;10.40;54.10;;;;;;5091294;28;20028;-73
2024/02/23 03:36:29;;;;;;;0.68;0.28;;;10.40;53.90;;;;;;5089993;28;20039;-70
2024/02/23 03:38:55;;;;;;;0.05;0.05;;;10.30;54.30;;;;;;5090987;28;20032;-73
2024/02/23 03:41:22;;;;;;;0.00;0.00;;;10.30;54.60;;;;;;5089193;28;20033;-73
2024/02/23 03:43:47;;;;;;;;;;;10.30;54.70;;;;;;5090775;28;20093;-70
2024/02/23 03:46:14;;;;;;;0.10;0.10;;;10.40;54.70;;;;;;5091331;28;19912;-70
2024/02/23 03:48:40;;;;;;;0.10;0.10;;;10.30;54.70;;;;;;5091624;28;20081;-73
2024/02/23 03:51:09;;;;;;;0.95;0.32;;;10.30;54.90;;;;;;5090943;28;20493;-72
2024/02/23 03:53:35;;;;;;;0.00;0.00;;;10.30;54.30;;;;;;5091607;28;20384;-73
2024/02/23 03:56:01;;;;;;;0.10;0.10;;;10.30;54.70;;;;;;5090894;28;20028;-73
2024/02/23 03:58:27;;;;;;;0.20;0.20;;;10.30;54.90;;;;;;5091330;28;20040;-73
2024/02/23 04:00:53;;;;;;;0.10;0.10;;;10.20;55.00;;;;;;5090246;28;20382;-73
2024/02/23 04:03:19;;;;;;;0.03;0.03;;;10.20;55.60;;;;;;5091147;28;20051;-70
2024/02/23 04:05:45;;;;;;;0.05;0.05;;;10.20;55.60;;;;;;5090026;28;20408;-70
2024/02/23 04:08:11;;;;;;;0.10;0.10;;;10.20;55.40;;;;;;5072929;28;20040;-73
2024/02/23 04:10:37;;;;;;;0.30;0.10;;;10.20;55.00;;;;;;5090163;28;20085;-70
2024/02/23 04:13:03;;;;;;;0.10;0.10;;;10.10;55.60;;;;;;5089585;28;20056;-73
2024/02/23 04:15:29;;;;;;;0.00;0.00;;;10.20;56.10;;;;;;5090910;28;20543;-72
2024/02/23 04:17:55;;;;;;;0.10;0.10;;;10.10;56.00;;;;;;5089636;28;20077;-70
2024/02/23 04:20:21;;;;;;;0.10;0.10;;;10.10;56.30;;;;;;5089212;28;20067;-73
2024/02/23 04:22:48;;;;;;;0.22;0.20;;;10.10;56.30;;;;;;5089522;28;20051;-71
2024/02/23 04:25:14;;;;;;;0.10;0.10;;;10.10;56.80;;;;;;5089338;28;20442;-73
2024/02/23 04:27:40;;;;;;;0.10;0.10;;;10.10;56.60;;;;;;5089459;28;20123;-70
2024/02/23 04:30:07;;;;;;;0.15;0.10;;;10.10;56.80;;;;;;5071936;28;20409;-72
2024/02/23 04:32:33;;;;;;;0.00;0.00;;;10.10;56.60;;;;;;5089913;28;20048;-73
2024/02/23 04:34:59;;;;;;;0.00;0.00;;;10.10;56.70;;;;;;5093114;28;20073;-72
2024/02/23 04:37:25;;;;;;;0.65;0.22;;;10.10;56.70;;;;;;5092938;28;20044;-70
2024/02/23 04:39:51;;;;;;;0.10;0.10;;;10.10;56.60;;;;;;5092795;28;20043;-69
2024/02/23 04:42:17;;;;;;;0.13;0.13;;;10.10;56.70;;;;;;5093816;28;20447;-73
2024/02/23 04:44:43;;;;;;;0.55;0.30;;;10.10;56.70;;;;;;5094368;28;20032;-73
2024/02/23 04:47:09;;;;;;;0.00;0.00;;;10.10;56.60;;;;;;5092753;28;20075;-73
2024/02/23 04:49:35;;;;;;;0.75;0.30;;;10.10;57.20;;;;;;5093094;28;20031;-72
2024/02/23 04:52:01;;;;;;;;;;;10.10;55.90;;;;;;5094038;28;20127;-72
2024/02/23 04:54:27;;;;;;;0.43;0.30;;;10.10;56.40;;;;;;5092525;28;20288;-72
2024/02/23 04:56:53;;;;;;;0.10;0.10;;;10.10;56.50;;;;;;5094084;28;20043;-73
2024/02/23 04:59:19;;;;;;;0.10;0.10;;;10.10;56.50;;;;;;5093634;28;20394;-73
2024/02/23 05:01:45;;;;;;;0.25;0.20;;;10.10;56.60;;;;;;5093329;28;20032;-73
2024/02/23 05:04:11;;;;;;;0.20;0.20;;;10.10;56.50;;;;;;5092215;28;20102;-73
2024/02/23 05:06:37;;;;;;;0.10;0.10;;;10.00;56.50;;;;;;5093580;28;20047;-73
2024/02/23 05:09:03;;;;;;;0.10;0.10;;;10.00;56.30;;;;;;5092222;28;20032;-73
2024/02/23 05:11:29;;;;;;;0.00;0.00;;;10.10;56.30;;;;;;5091580;28;20036;-73
2024/02/23 05:13:55;;;;;;;0.10;0.10;;;10.10;56.20;;;;;;5093522;28;20067;-70
2024/02/23 05:16:21;;;;;;;0.10;0.10;;;10.10;56.00;;;;;;5092154;28;20040;-70
2024/02/23 05:18:48;;;;;;;1.35;0.30;;;10.10;55.70;;;;;;5093414;28;20511;-73
2024/02/23 05:21:33;;;;;;;1.45;0.47;;;10.20;55.60;;;;;;5092872;28;20043;-73
2024/02/23 05:23:59;;;;;;;3.03;1.73;;;10.20;55.60;;;;;;5093411;28;20118;-71
2024/02/23 05:26:25;;;;;;;1.67;0.30;;;10.20;55.40;;;;;;5092071;28;20081;-70
2024/02/23 05:28:52;;;;;;;0.70;0.63;;;10.10;55.40;;;;;;5091700;28;20043;-70
2024/02/23 05:31:18;;;;;;;0.17;0.17;;;10.10;55.30;;;;;;5091461;28;20205;-73
2024/02/23 05:33:44;;;;;;;0.40;0.22;;;10.10;55.40;;;;;;5091794;28;20427;-73
2024/02/23 05:36:10;;;;;;;2.92;1.73;;;10.10;55.50;;;;;;5091735;28;20069;-70
2024/02/23 05:38:36;;;;;;;2.25;2.05;;;10.00;55.50;;;;;;5093390;28;20125;-70
2024/02/23 05:41:02;;;;;;;1.75;1.08;;;10.10;55.70;;;;;;5092103;28;20064;-71
2024/02/23 05:43:28;;;;;;;1.27;0.80;;;10.00;55.80;;;;;;5092802;28;20048;-73
2024/02/23 05:45:57;;;;;;;1.98;0.80;;;9.90;56.10;;;;;;5092544;28;20081;-73
2024/02/23 05:48:23;;;;;;;8.40;2.40;;;9.90;56.10;;;;;;5075132;28;20039;-73
2024/02/23 05:50:49;;;;;;;5.43;2.75;;;9.90;56.10;;;;;;5091003;28;20040;-72
2024/02/23 05:53:15;;;;;;;3.05;1.48;;;9.90;56.20;;;;;;5093198;28;20043;-70
2024/02/23 05:55:41;;;;;;;2.80;1.20;;;9.90;56.20;;;;;;5091283;28;20519;-70
2024/02/23 05:58:07;;;;;;;1.08;0.80;;;9.80;56.10;;;;;;5093109;28;20052;-70
2024/02/23 06:00:34;;;;;;;0.77;0.73;;;9.80;56.20;;;;;;5086561;28;20043;-73
2024/02/23 06:03:00;;;;;;;1.30;1.20;;;9.80;56.40;;;;;;5075766;28;20043;-70
2024/02/23 06:05:26;;;;;;;3.25;1.77;;;9.70;56.90;;;;;;5072643;28;20032;-70
2024/02/23 06:07:52;;;;;;;3.08;1.40;;;9.70;57.10;;;;;;5072035;28;20048;-73
2024/02/23 06:10:18;;;;;;;2.65;0.93;;;9.70;56.90;;;;;;5072016;28;20376;-70
2024/02/23 06:12:44;;;;;;;1.58;1.15;;;9.70;56.90;;;;;;5071030;28;20036;-72
2024/02/23 06:15:10;;;;;;;2.85;0.90;;;9.70;56.80;;;;;;5072168;28;20544;-73
2024/02/23 06:17:39;;;;;;;8.10;3.00;;;9.70;56.80;;;;;;5070697;28;20048;-73
2024/02/23 06:20:07;;;;;;;1.05;0.52;;;9.70;56.60;;;;;;5077443;28;20107;-73
2024/02/23 06:22:34;;;;;;;0.47;0.35;;;9.80;56.60;;;;;;5074014;28;20489;-73
2024/02/23 06:25:00;;;;;;;1.95;0.77;;;9.80;56.90;;;;;;5074111;28;20024;-73
2024/02/23 06:27:27;;;;;;;0.93;0.70;;;9.80;56.90;;;;;;5090789;28;20043;-70
2024/02/23 06:29:53;;;;;;;1.90;0.80;;;9.80;56.90;;;;;;5091830;28;20030;-70
2024/02/23 06:32:19;;;;;;;1.02;0.40;;;9.80;57.40;;;;;;5090228;28;20054;-73
2024/02/23 06:34:46;;;;;;;1.17;0.50;;;9.90;57.60;;;;;;5092071;28;20032;-73
2024/02/23 06:37:13;;;;;;;4.85;1.40;;;9.90;57.50;;;;;;5075773;28;20496;-70
2024/02/23 06:39:39;;;;;;;0.32;0.30;;;9.90;57.60;;;;;;5071687;28;20028;-70
2024/02/23 06:42:06;;;;;;;2.42;1.33;;;9.90;57.60;;;;;;5069734;28;20125;-73
2024/02/23 06:44:32;;;;;;;;;;;9.90;57.20;;;;;;5072098;28;20035;-73
2024/02/23 06:46:58;;;;;;;0.73;0.40;;;9.90;57.90;;;;;;5071359;28;20361;-71
2024/02/23 06:49:24;;;;;;;0.20;0.13;;;9.90;57.80;;;;;;5071269;28;20060;-73
2024/02/23 06:51:50;;;;;;;1.08;0.32;;;9.90;57.70;;;;;;5070864;28;20243;-73
2024/02/23 06:54:16;;;;;;;0.35;0.35;;;10.00;57.70;;;;;;5084881;28;20485;-70
2024/02/23 06:56:42;;;;;;;0.35;0.30;;;9.90;58.20;;;;;;5083248;28;20078;-73
2024/02/23 06:59:08;;;;;;;0.40;0.22;;;9.90;58.10;;;;;;5069676;28;20199;-70
2024/02/23 07:01:35;;;;;;;1.15;0.70;;;10.00;57.90;;;;;;5069570;28;20040;-73
2024/02/23 07:04:01;;;;;;;4.18;2.17;;;10.00;57.70;;;;;;5071017;28;20442;-70
2024/02/23 07:06:31;;;;;;;6.40;1.15;;;10.00;57.70;;;;;;5069785;28;20086;-71
2024/02/23 07:08:57;;;;;;;0.82;0.55;;;10.00;57.60;;;;;;5071325;28;20039;-73
2024/02/23 07:11:23;;;;;;;1.38;0.75;;;10.10;57.60;;;;;;5070468;28;20033;-70
2024/02/23 07:13:49;;;;;;;1.55;0.73;;;10.10;57.60;;;;;;5071206;28;20117;-73
2024/02/23 07:16:15;;;;;;;3.50;2.17;;;10.10;57.50;;;;;;5071213;28;20041;-71
2024/02/23 07:18:42;;;;;;;4.80;1.98;;;10.20;57.20;;;;;;5053389;28;20363;-70
2024/02/23 07:21:08;;;;;;;2.35;2.15;;;10.30;57.20;;;;;;5069309;28;20426;-72
2024/02/23 07:23:34;;;;;;;3.58;2.20;;;10.30;57.30;;;;;;5071465;28;20064;-73
2024/02/23 07:26:00;;;;;;;3.53;1.13;;;10.30;57.50;;;;;;5070832;28;20445;-72
2024/02/23 07:28:26;;;;;;;4.65;2.75;;;10.30;57.30;;;;;;5069789;28;20044;-73
2024/02/23 07:30:52;;;;;;;2.10;1.00;;;10.40;57.00;;;;;;5069267;28;20120;-70
2024/02/23 07:33:18;;;;;;;5.38;2.55;;;10.60;56.50;;;;;;5053371;28;20040;-73
2024/02/23 07:35:44;;;;;;;2.03;1.08;;;10.70;56.10;;;;;;5070881;28;20029;-73
2024/02/23 07:38:11;;;;;;;1.65;0.95;;;10.90;55.60;;;;;;5071152;28;20044;-70
2024/02/23 07:40:37;;;;;;;2.08;1.05;;;11.00;54.90;;;;;;5068073;28;20045;-73
2024/02/23 07:43:03;;;;;;;;;;;11.10;54.70;;;;;;5062260;28;20213;-70
2024/02/23 07:45:29;;;;;;;2.28;1.05;;;11.20;54.60;;;;;;5074066;28;19926;-73
2024/02/23 07:47:55;;;;;;;2.30;1.17;;;11.20;54.60;;;;;;5081609;28;20509;-71
2024/02/23 07:50:21;;;;;;;6.45;1.77;;;11.30;54.60;;;;;;5069030;28;20066;-73
2024/02/23 07:52:47;;;;;;;1.48;0.82;;;11.30;54.50;;;;;;5071001;28;20131;-73
2024/02/23 07:55:13;;;;;;;0.82;0.70;;;11.30;54.40;;;;;;5069760;28;20036;-72
2024/02/23 07:57:39;;;;;;;1.92;1.67;;;11.30;54.30;;;;;;5070656;28;20047;-73
2024/02/23 08:00:09;;;;;;;1.92;1.13;;;11.40;54.20;;;;;;5086027;28;20032;-74
2024/02/23 08:02:36;;;;;;;1.25;0.82;;;11.40;53.80;;;;;;5071687;28;20043;-73
2024/02/23 08:05:02;;;;;;;0.75;0.47;;;11.50;53.70;;;;;;5070668;28;20045;-70
2024/02/23 08:07:30;;;;;;;0.43;0.38;;;11.60;53.60;;;;;;5079411;28;20113;-70
2024/02/23 08:09:57;;;;;;;1.48;0.85;;;11.70;53.70;;;;;;5094594;28;20039;-73
2024/02/23 08:12:23;;;;;;;2.55;1.50;;;11.70;53.10;;;;;;5074129;28;20075;-70
2024/02/23 08:14:53;;;;;;;1.42;0.73;;;11.80;53.70;;;;;;5060854;28;20071;-70
2024/02/23 08:17:19;;;;;;;1.05;0.65;;;11.90;53.60;;;;;;5075660;28;20051;-73
2024/02/23 08:19:46;;;;;;;1.10;0.90;;;12.00;53.30;;;;;;5093347;28;20020;-71
2024/02/23 08:22:12;;;;;;;1.08;0.60;;;12.10;52.80;;;;;;5093796;28;20067;-70
2024/02/23 08:24:38;;;;;;;1.60;0.75;;;12.30;53.50;;;;;;5094576;28;20036;-70
2024/02/23 08:27:04;;;;;;;;;;;12.50;53.10;;;;;;5094866;28;20083;-73
2024/02/23 08:29:30;;;;;;;0.22;0.22;;;12.70;52.40;;;;;;5094053;28;20193;-70
2024/02/23 08:31:56;;;;;;;0.40;0.40;;;12.90;52.10;;;;;;5092575;28;20446;-73
2024/02/23 08:34:22;;;;;;;1.02;0.85;;;13.00;51.70;;;;;;5093201;28;20077;-71
2024/02/23 08:36:48;;;;;;;0.60;0.43;;;13.20;51.50;;;;;;5089992;28;20386;-71
2024/02/23 08:39:14;;;;;;;1.52;0.77;;;13.40;51.00;;;;;;5080973;28;20692;-70
2024/02/23 08:41:40;;;;;;;0.90;0.30;;;13.70;50.70;;;;;;5071816;28;20049;-70
2024/02/23 08:44:06;;;;;;;0.35;0.25;;;14.00;47.40;;;;;;5074468;28;20032;-73
2024/02/23 08:46:32;;;;;;;2.22;1.27;;;14.20;46.90;;;;;;5072290;28;20523;-73
2024/02/23 08:48:58;;;;;;;2.58;0.82;;;14.30;46.90;;;;;;5073477;28;20260;-71
2024/02/23 08:51:24;;;;;;;1.08;0.60;;;14.40;45.00;;;;;;5085857;28;20040;-73
2024/02/23 08:53:50;;;;;;;2.42;1.83;;;14.30;45.00;;;;;;5072136;28;20044;-70
2024/02/23 08:56:16;;;;;;;3.95;1.40;;;14.20;44.90;;;;;;5072085;28;20089;-70
2024/02/23 08:58:42;;;;;;;2.03;1.23;;;14.10;45.40;;;;;;5071962;28;20035;-73
2024/02/23 09:01:09;;;;;;;1.80;0.95;;;14.00;45.30;;;;;;5072948;28;20037;-73
2024/02/23 09:03:35;;;;;;;0.65;0.40;;;13.90;45.60;;;;;;5072118;28;20048;-73
2024/02/23 09:06:01;;;;;;;0.43;0.20;;;13.80;45.50;;;;;;5071990;28;20078;-72
2024/02/23 09:08:27;;;;;;;0.20;0.20;;;13.70;46.40;;;;;;5072168;28;20044;-70
2024/02/23 09:10:53;;;;;;;0.10;0.10;;;13.70;46.50;;;;;;5092819;28;20032;-73
2024/02/23 09:13:19;;;;;;;0.20;0.20;;;13.70;45.80;;;;;;5093721;28;20048;-70
2024/02/23 09:15:46;;;;;;;0.40;0.25;;;13.70;45.90;;;;;;5093375;28;20081;-73
2024/02/23 09:18:12;;;;;;;0.28;0.28;;;13.70;46.10;;;;;;5091211;28;20119;-70
2024/02/23 09:20:38;;;;;;;0.52;0.30;;;13.70;45.60;;;;;;5091536;28;20036;-71
2024/02/23 09:23:04;;;;;;;0.45;0.28;;;13.70;46.50;;;;;;5093631;28;20149;-70
2024/02/23 09:25:30;;;;;;;0.15;0.15;;;13.80;46.40;;;;;;5074955;28;20040;-74
2024/02/23 09:27:59;;;;;;;2.67;0.68;;;13.70;46.80;;;;;;5093211;28;20059;-72
2024/02/23 09:30:25;;;;;;;0.32;0.10;;;13.60;46.70;;;;;;5091344;28;20039;-73
2024/02/23 09:32:51;;;;;;;0.20;0.20;;;13.50;48.00;;;;;;5093200;28;20397;-71
2024/02/23 09:35:17;;;;;;;0.20;0.20;;;13.40;47.00;;;;;;5071325;28;20082;-71
2024/02/23 09:37:44;;;;;;;0.38;0.20;;;13.30;47.90;;;;;;5072902;28;20417;-73
2024/02/23 09:40:11;;;;;;;0.63;0.43;;;13.30;47.80;;;;;;5072162;28;20436;-70
2024/02/23 09:42:38;;;;;;;0.22;0.20;;;13.30;47.40;;;;;;5074053;28;20044;-73
2024/02/23 09:45:07;;;;;;;0.32;0.22;;;13.40;47.70;;;;;;5089493;28;20024;-73
2024/02/23 09:47:33;;;;;;;0.40;0.28;;;13.50;46.70;;;;;;5054628;28;20120;-73
2024/02/23 09:50:04;;;;;;;0.90;0.22;;;13.80;47.00;;;;;;5054447;28;20505;-70
2024/02/23 09:52:30;;;;;;;0.70;0.35;;;14.00;45.70;;;;;;5072103;28;20167;-73
2024/02/23 09:54:56;;;;;;;1.42;0.82;;;14.30;45.80;;;;;;5071170;28;20509;-73
2024/02/23 09:57:22;;;;;;;0.40;0.28;;;14.60;44.60;;;;;;5073144;28;20071;-73
2024/02/23 09:59:49;;;;;;;1.38;0.50;;;14.60;43.00;;;;;;5073786;28;20032;-73
2024/02/23 10:02:16;;;;;;;1.55;0.95;;;14.60;42.20;;;;;;5090723;28;20088;-70
2024/02/23 10:04:43;;;;;;;0.22;0.22;;;14.60;40.90;;;;;;5091471;28;20040;-70
2024/02/23 10:07:10;;;;;;;0.95;0.38;;;14.60;41.00;;;;;;5090799;28;20070;-70
2024/02/23 10:09:37;;;;;;;0.47;0.32;;;14.80;40.80;;;;;;5090656;28;20109;-73
2024/02/23 10:12:04;;;;;;;0.80;0.55;;;14.80;40.90;;;;;;5090108;28;20044;-70
2024/02/23 10:14:30;;;;;;;0.77;0.52;;;14.80;40.50;;;;;;5090944;28;20427;-70
2024/02/23 10:16:57;;;;;;;0.90;0.80;;;14.80;41.70;;;;;;5087044;28;20040;-73
2024/02/23 10:19:28;;;;;;;0.10;0.10;;;14.80;41.20;;;;;;5071987;28;20401;-70
2024/02/23 10:21:55;;;;;;;1.00;0.35;;;14.80;40.80;;;;;;5070141;28;20401;-73
2024/02/23 10:24:22;;;;;;;0.95;0.40;;;14.80;41.00;;;;;;5070252;28;20540;-73
2024/02/23 10:26:48;;;;;;;0.47;0.30;;;14.80;40.80;;;;;;5070360;28;20036;-73
2024/02/23 10:29:15;;;;;;;0.65;0.30;;;15.00;40.20;;;;;;5070128;28;20025;-70
2024/02/23 10:31:42;;;;;;;;;;;14.90;40.70;;;;;;5071589;28;20460;-70
2024/02/23 10:34:12;;;;;;;0.90;0.55;;;15.00;40.50;;;;;;5070188;28;19912;-73
2024/02/23 10:36:42;;;;;;;0.20;0.20;;;15.00;40.00;;;;;;5071922;28;20040;-71
2024/02/23 10:39:09;;;;;;;0.50;0.30;;;14.90;39.40;;;;;;5070446;28;20400;-73
2024/02/23 10:44:22;;;;;;;1.85;1.00;;;15.00;39.30;;;;;;5077551;28;20044;-70
2024/02/23 10:46:51;;;;;;;0.20;0.10;;;14.90;38.60;;;;;;5090046;28;20043;-73
2024/02/23 10:49:23;;;;;;;0.95;0.73;;;14.90;38.90;;;;;;5069621;28;20424;-73
2024/02/23 10:51:51;;;;;;;0.47;0.20;;;14.80;38.90;;;;;;5069561;28;20113;-73
2024/02/23 10:54:20;;;;;;;0.55;0.32;;;14.80;39.20;;;;;;5070010;28;20021;-71
2024/02/23 10:57:04;;;;;;;0.57;0.35;;;14.70;39.40;;;;;;5078406;28;20380;-70
2024/02/23 10:59:31;;;;;;;0.10;0.10;;;14.70;39.30;;;;;;5091297;28;20081;-73
2024/02/23 11:01:59;;;;;;;0.43;0.43;;;14.60;39.20;;;;;;5089811;28;20066;-70
2024/02/23 11:04:27;;;;;;;0.50;0.40;;;14.60;39.30;;;;;;5090142;28;20449;-70
2024/02/23 11:06:58;;;;;;;0.75;0.30;;;14.40;39.50;;;;;;5089871;28;20036;-70
2024/02/23 11:09:25;;;;;;;4.20;0.95;;;14.40;39.80;;;;;;5081784;28;20094;-72
2024/02/23 11:12:11;;;;;;;0.10;0.10;;;14.40;39.90;;;;;;5089680;28;20097;-73
2024/02/23 11:14:39;;;;;;;1.03;0.63;;;14.30;40.00;;;;;;5090444;28;20067;-70
2024/02/23 11:17:05;;;;;;;1.90;0.85;;;14.40;40.10;;;;;;5090053;28;20043;-71
2024/02/23 11:19:49;;;;;;;0.75;0.45;;;14.40;40.20;;;;;;5090163;28;20507;-73
2024/02/23 11:22:15;;;;;;;0.70;0.63;;;14.40;40.20;;;;;;5089290;28;20052;-73
2024/02/23 11:25:20;;;;;;;0.30;0.30;;;14.40;40.60;;;;;;5070941;28;20381;-72
2024/02/23 11:27:50;;;;;;;0.70;0.70;;;14.40;40.80;;;;;;5071301;28;20044;-70
2024/02/23 11:30:17;;;;;;;0.77;0.47;;;14.30;40.80;;;;;;5060197;28;20039;-70
2024/02/23 11:32:47;;;;;;;0.30;0.30;;;14.30;40.70;;;;;;5072411;28;20061;-71
2024/02/23 11:35:15;;;;;;;3.65;0.30;;;14.40;41.20;;;;;;5069712;28;20033;-70
2024/02/23 11:38:05;;;;;;;1.88;0.60;;;14.30;41.40;;;;;;5070021;28;20040;-73
2024/02/23 11:40:32;;;;;;;1.30;0.68;;;14.30;41.50;;;;;;5069203;28;20079;-70
2024/02/23 11:45:46;;;;;;;1.48;0.55;;;14.40;41.00;;;;;;5094190;28;20405;-70
2024/02/23 11:48:12;;;;;;;3.33;1.00;;;14.40;41.90;;;;;;5093839;28;20040;-73
2024/02/23 11:50:38;;;;;;;0.20;0.15;;;14.50;42.10;;;;;;5094703;28;20036;-70
2024/02/23 11:53:04;;;;;;;1.65;0.38;;;14.60;41.80;;;;;;5095091;28;20040;-70
2024/02/23 11:55:31;;;;;;;1.00;0.80;;;14.60;41.60;;;;;;5093987;28;20028;-72
2024/02/23 11:57:57;;;;;;;0.50;0.22;;;14.80;40.70;;;;;;5093613;28;20393;-73
2024/02/23 12:00:24;;;;;;;1.10;0.38;;;14.90;40.70;;;;;;5078264;28;20044;-70
2024/02/23 12:02:50;;;;;;;1.02;0.70;;;15.20;40.70;;;;;;5073322;28;20086;-71
2024/02/23 12:05:17;;;;;;;0.35;0.35;;;15.30;40.10;;;;;;5072955;28;20045;-73
2024/02/23 12:07:43;;;;;;;0.30;0.30;;;15.30;39.40;;;;;;5073422;28;20052;-73
2024/02/23 12:10:11;;;;;;;;;;;15.40;39.40;;;;;;5073982;28;20378;-70
2024/02/23 12:12:37;;;;;;;0.47;0.20;;;15.40;39.50;;;;;;5087007;28;19946;-73
2024/02/23 12:15:03;;;;;;;;;;;15.40;39.60;;;;;;5072810;28;20078;-73
2024/02/23 12:17:29;;;;;;;0.32;0.22;;;15.40;39.00;;;;;;5072036;28;19920;-74
2024/02/23 12:20:14;;;;;;;1.27;0.95;;;15.40;39.60;;;;;;5074037;28;20078;-71
2024/02/23 12:23:01;;;;;;;0.17;0.17;;;15.40;39.40;;;;;;5073979;28;20044;-73
2024/02/23 12:25:27;;;;;;;0.65;0.35;;;15.40;39.60;;;;;;5055695;28;20033;-71
2024/02/23 12:28:11;;;;;;;0.52;0.45;;;15.40;39.90;;;;;;5080065;28;20363;-73
2024/02/23 12:30:37;;;;;;;5.43;2.15;;;15.30;39.60;;;;;;5055549;28;20447;-73
2024/02/23 12:33:07;;;;;;;0.70;0.28;;;15.30;40.20;;;;;;5077924;28;20481;-70
2024/02/23 12:38:20;;;;;;;0.43;0.43;;;15.30;39.90;;;;;;5073296;28;20106;-73
2024/02/23 12:40:47;;;;;;;0.93;0.80;;;15.30;40.10;;;;;;5073464;28;20479;-73
2024/02/23 12:43:13;;;;;;;0.45;0.40;;;15.40;39.80;;;;;;5073493;28;20464;-70
2024/02/23 12:45:39;;;;;;;1.85;1.08;;;15.30;40.10;;;;;;5072774;28;20037;-70
2024/02/23 12:48:06;;;;;;;5.28;1.95;;;15.30;39.60;;;;;;5074020;28;20044;-71
2024/02/23 12:50:32;;;;;;;2.55;1.08;;;15.40;39.20;;;;;;5079395;28;20044;-71
2024/02/23 12:53:00;;;;;;;1.65;1.05;;;15.40;40.00;;;;;;5072999;28;20044;-73
2024/02/23 12:55:26;;;;;;;0.50;0.50;;;15.40;39.80;;;;;;5073270;28;20537;-70
2024/02/23 12:57:52;;;;;;;1.00;0.50;;;15.40;39.90;;;;;;5083421;28;20040;-70
2024/02/23 13:00:18;;;;;;;0.30;0.30;;;15.40;39.70;;;;;;5091943;28;20040;-71